createdAt,value
2018-07-09T00:01:26.898Z,18.60
2018-07-09T00:03:55.867Z,18.60
2018-07-09T00:06:24.820Z,18.50
2018-07-09T00:08:53.702Z,18.60
2018-07-09T00:11:22.630Z,18.50
2018-07-09T00:13:51.533Z,18.30
2018-07-09T00:16:20.443Z,18.20
2018-07-09T00:18:49.349Z,18.20
2018-07-09T00:21:18.294Z,18.10
2018-07-09T00:26:15.718Z,18.00
2018-07-09T00:28:44.618Z,18.00
2018-07-09T00:31:13.575Z,17.90
2018-07-09T00:33:42.494Z,17.80
2018-07-09T00:36:11.500Z,17.80
2018-07-09T00:38:40.466Z,17.80
2018-07-09T00:41:09.410Z,17.80
2018-07-09T00:43:38.336Z,17.70
2018-07-09T00:46:07.286Z,17.70
2018-07-09T00:48:36.273Z,17.50
2018-07-09T00:51:05.308Z,17.30
2018-07-09T00:53:34.397Z,17.30
2018-07-09T00:56:03.406Z,17.30
2018-07-09T00:58:32.338Z,17.30
2018-07-09T01:01:01.263Z,17.30
2018-07-09T01:03:30.250Z,17.20
2018-07-09T01:05:59.138Z,17.20
2018-07-09T01:08:28.456Z,17.10
2018-07-09T01:12:06.497Z,17.10
2018-07-09T01:14:35.458Z,17.00
2018-07-09T01:17:04.423Z,16.70
2018-07-09T01:19:33.367Z,16.70
2018-07-09T01:22:03.188Z,16.70
2018-07-09T01:24:32.094Z,16.70
2018-07-09T01:27:01.350Z,16.70
2018-07-09T01:29:30.333Z,16.60
2018-07-09T01:31:59.226Z,16.70
2018-07-09T01:34:28.170Z,16.60
2018-07-09T01:36:57.171Z,16.60
2018-07-09T01:39:26.062Z,16.60
2018-07-09T01:41:54.937Z,16.60
2018-07-09T01:44:23.881Z,16.60
2018-07-09T01:46:52.878Z,16.50
2018-07-09T01:49:21.890Z,16.50
2018-07-09T01:51:50.871Z,16.50
2018-07-09T01:54:19.901Z,16.50
2018-07-09T01:56:48.841Z,16.60
2018-07-09T01:59:17.905Z,16.60
2018-07-09T02:01:46.904Z,16.50
2018-07-09T02:04:15.839Z,16.40
2018-07-09T02:06:44.738Z,16.30
2018-07-09T02:09:13.641Z,16.30
2018-07-09T02:11:42.530Z,16.40
2018-07-09T02:14:11.485Z,16.40
2018-07-09T02:16:40.434Z,16.30
2018-07-09T02:19:09.465Z,16.20
2018-07-09T02:21:38.365Z,16.20
2018-07-09T02:24:07.917Z,16.10
2018-07-09T02:26:36.807Z,16.10
2018-07-09T02:29:06.047Z,16.10
2018-07-09T02:31:34.960Z,16.00
2018-07-09T02:34:03.874Z,16.10
2018-07-09T02:36:32.810Z,16.10
2018-07-09T02:39:02.326Z,16.00
2018-07-09T02:41:31.287Z,16.10
2018-07-09T02:44:00.214Z,16.00
2018-07-09T02:46:29.162Z,16.00
2018-07-09T02:48:58.385Z,15.90
2018-07-09T02:51:27.279Z,16.00
2018-07-09T02:53:56.230Z,15.90
2018-07-09T02:56:25.131Z,15.80
2018-07-09T02:58:54.054Z,15.80
2018-07-09T03:01:22.982Z,15.70
2018-07-09T03:03:51.941Z,15.70
2018-07-09T03:06:20.818Z,15.60
2018-07-09T03:08:49.773Z,15.60
2018-07-09T03:11:18.669Z,15.70
2018-07-09T03:13:47.587Z,15.70
2018-07-09T03:16:16.515Z,15.70
2018-07-09T03:18:45.529Z,15.70
2018-07-09T03:21:14.401Z,15.70
2018-07-09T03:23:43.671Z,15.60
2018-07-09T03:26:12.615Z,15.60
2018-07-09T03:28:41.540Z,15.60
2018-07-09T03:31:10.443Z,15.50
2018-07-09T03:33:39.612Z,15.50
2018-07-09T03:36:08.777Z,15.40
2018-07-09T03:38:37.682Z,15.40
2018-07-09T03:41:06.579Z,15.40
2018-07-09T03:43:35.486Z,15.30
2018-07-09T03:46:04.373Z,15.20
2018-07-09T03:48:33.269Z,15.30
2018-07-09T03:51:02.191Z,15.30
2018-07-09T03:53:31.094Z,15.40
2018-07-09T03:55:59.983Z,15.40
2018-07-09T03:58:28.870Z,15.40
2018-07-09T04:00:57.742Z,15.30
2018-07-09T04:03:26.670Z,15.30
2018-07-09T04:05:55.557Z,15.40
2018-07-09T04:08:24.590Z,15.40
2018-07-09T04:10:53.622Z,15.40
2018-07-09T04:13:22.634Z,15.50
2018-07-09T04:15:51.531Z,15.60
2018-07-09T04:18:25.166Z,15.60
2018-07-09T04:20:55.845Z,15.70
2018-07-09T04:23:24.795Z,15.70
2018-07-09T04:25:53.670Z,15.80
2018-07-09T04:28:22.722Z,15.80
2018-07-09T04:30:51.679Z,15.90
2018-07-09T04:33:20.752Z,16.00
2018-07-09T04:35:49.597Z,16.10
2018-07-09T04:38:18.676Z,16.10
2018-07-09T04:40:47.618Z,16.10
2018-07-09T04:43:16.545Z,16.10
2018-07-09T04:45:45.419Z,16.20
2018-07-09T04:48:14.346Z,16.30
2018-07-09T04:50:43.234Z,16.30
2018-07-09T04:53:12.190Z,16.30
2018-07-09T04:55:41.101Z,16.50
2018-07-09T04:58:10.116Z,16.50
2018-07-09T05:03:07.553Z,16.80
2018-07-09T05:05:36.474Z,16.90
2018-07-09T05:08:05.390Z,17.00
2018-07-09T05:10:34.330Z,17.10
2018-07-09T05:13:03.341Z,17.30
2018-07-09T05:15:32.165Z,17.40
2018-07-09T05:18:01.050Z,17.60
2018-07-09T05:20:29.927Z,17.80
2018-07-09T05:22:58.862Z,17.90
2018-07-09T05:25:27.905Z,18.10
2018-07-09T05:27:56.818Z,18.20
2018-07-09T05:30:25.723Z,18.40
2018-07-09T05:32:54.626Z,18.60
2018-07-09T05:35:23.595Z,18.80
2018-07-09T05:37:52.601Z,18.80
2018-07-09T05:40:21.630Z,18.90
2018-07-09T05:42:50.598Z,19.00
2018-07-09T05:45:19.554Z,19.20
2018-07-09T05:47:48.528Z,19.30
2018-07-09T05:50:18.914Z,19.30
2018-07-09T05:52:47.846Z,19.40
2018-07-09T05:57:45.271Z,19.50
2018-07-09T06:00:14.399Z,19.60
2018-07-09T06:02:43.514Z,19.70
2018-07-09T06:05:12.485Z,19.70
2018-07-09T06:07:41.521Z,19.70
2018-07-09T06:10:10.456Z,19.70
2018-07-09T06:12:39.422Z,19.60
2018-07-09T06:15:08.399Z,19.60
2018-07-09T06:17:37.310Z,19.60
2018-07-09T06:20:06.766Z,19.60
2018-07-09T06:22:35.992Z,19.70
2018-07-09T06:25:04.963Z,19.80
2018-07-09T06:27:33.851Z,19.80
2018-07-09T06:30:02.802Z,19.90
2018-07-09T06:32:31.740Z,19.80
2018-07-09T06:35:00.678Z,19.70
2018-07-09T06:37:29.578Z,19.60
2018-07-09T06:39:58.643Z,19.70
2018-07-09T06:42:27.567Z,19.60
2018-07-09T06:44:56.488Z,19.50
2018-07-09T06:47:25.382Z,19.60
2018-07-09T06:49:54.336Z,19.80
2018-07-09T06:52:23.371Z,19.90
2018-07-09T06:54:52.278Z,20.00
2018-07-09T06:59:49.773Z,20.20
2018-07-09T07:02:18.679Z,20.40
2018-07-09T07:04:47.635Z,20.50
2018-07-09T07:07:16.517Z,20.60
2018-07-09T07:09:45.602Z,20.60
2018-07-09T07:12:14.518Z,20.60
2018-07-09T07:14:43.462Z,20.60
2018-07-09T07:17:12.402Z,20.70
2018-07-09T07:19:41.342Z,20.80
2018-07-09T07:22:10.331Z,20.90
2018-07-09T07:27:07.963Z,21.10
2018-07-09T07:29:36.901Z,21.20
2018-07-09T07:32:05.851Z,21.30
2018-07-09T07:34:34.826Z,21.30
2018-07-09T07:37:03.755Z,21.30
2018-07-09T07:39:32.700Z,21.40
2018-07-09T07:42:01.612Z,21.60
2018-07-09T07:44:30.634Z,21.70
2018-07-09T07:46:59.635Z,21.70
2018-07-09T07:49:28.550Z,21.90
2018-07-09T07:51:57.587Z,22.00
2018-07-09T07:54:26.527Z,22.10
2018-07-09T07:56:55.486Z,22.20
2018-07-09T07:59:24.493Z,22.20
2018-07-09T08:04:22.012Z,22.40
2018-07-09T08:06:50.878Z,22.60
2018-07-09T08:09:19.939Z,22.60
2018-07-09T08:11:49.192Z,22.60
2018-07-09T08:14:17.664Z,22.70
2018-07-09T08:16:46.620Z,22.90
2018-07-09T08:19:15.533Z,22.80
2018-07-09T08:21:44.462Z,22.90
2018-07-09T08:24:13.436Z,22.80
2018-07-09T08:26:42.339Z,22.60
2018-07-09T08:29:11.371Z,22.50
2018-07-09T08:31:40.283Z,22.30
2018-07-09T08:34:09.306Z,22.30
2018-07-09T08:36:38.270Z,22.40
2018-07-09T08:39:07.346Z,22.50
2018-07-09T08:41:36.303Z,22.50
2018-07-09T08:44:05.262Z,22.70
2018-07-09T08:46:34.188Z,23.00
2018-07-09T08:49:03.140Z,23.40
2018-07-09T08:51:32.019Z,23.80
2018-07-09T08:54:01.039Z,24.00
2018-07-09T08:56:30.159Z,24.20
2018-07-09T08:58:59.046Z,24.30
2018-07-09T09:01:27.950Z,24.20
2018-07-09T09:03:56.854Z,24.10
2018-07-09T09:06:25.758Z,23.90
2018-07-09T09:08:54.845Z,23.80
2018-07-09T09:11:23.746Z,23.80
2018-07-09T09:13:52.878Z,23.80
2018-07-09T09:16:21.856Z,23.90
2018-07-09T09:18:51.182Z,24.10
2018-07-09T09:21:20.274Z,24.10
2018-07-09T09:23:49.306Z,24.10
2018-07-09T09:26:18.254Z,24.10
2018-07-09T09:28:47.146Z,24.10
2018-07-09T09:31:16.069Z,24.50
2018-07-09T09:33:44.944Z,24.70
2018-07-09T09:36:13.919Z,24.90
2018-07-09T09:38:42.843Z,25.00
2018-07-09T09:41:11.782Z,25.10
2018-07-09T09:43:40.687Z,25.20
2018-07-09T09:46:09.690Z,25.20
2018-07-09T09:48:38.706Z,25.20
2018-07-09T09:51:07.718Z,25.30
2018-07-09T09:53:36.605Z,25.50
2018-07-09T09:56:05.568Z,25.60
2018-07-09T09:58:34.477Z,25.80
2018-07-09T10:01:03.371Z,25.80
2018-07-09T10:03:32.258Z,26.10
2018-07-09T10:06:01.178Z,26.00
2018-07-09T10:08:30.125Z,26.50
2018-07-09T10:10:59.002Z,26.70
2018-07-09T10:13:27.882Z,26.70
2018-07-09T10:15:56.782Z,26.90
2018-07-09T10:18:25.862Z,27.00
2018-07-09T10:20:54.851Z,27.30
2018-07-09T10:23:23.766Z,27.40
2018-07-09T10:25:52.749Z,27.50
2018-07-09T10:28:21.610Z,27.60
2018-07-09T10:33:19.198Z,27.30
2018-07-09T10:35:48.125Z,27.20
2018-07-09T10:38:17.010Z,27.00
2018-07-09T10:40:45.979Z,27.20
2018-07-09T10:43:15.046Z,27.00
2018-07-09T10:45:44.007Z,27.10
2018-07-09T10:48:12.898Z,27.40
2018-07-09T10:50:41.824Z,27.60
2018-07-09T10:53:10.746Z,27.60
2018-07-09T10:55:39.687Z,27.90
2018-07-09T10:58:08.612Z,27.90
2018-07-09T11:00:37.567Z,27.70
2018-07-09T11:03:06.530Z,27.60
2018-07-09T11:05:35.458Z,26.70
2018-07-09T11:08:04.438Z,26.50
2018-07-09T11:10:33.390Z,26.30
2018-07-09T11:13:03.110Z,26.00
2018-07-09T11:15:32.054Z,25.80
2018-07-09T11:18:01.056Z,25.70
2018-07-09T11:20:29.960Z,25.80
2018-07-09T11:22:58.821Z,26.20
2018-07-09T11:25:27.831Z,26.20
2018-07-09T11:27:56.994Z,26.40
2018-07-09T11:30:25.955Z,26.70
2018-07-09T11:32:54.854Z,26.80
2018-07-09T11:35:23.755Z,27.30
2018-07-09T11:37:52.671Z,27.50
2018-07-09T11:40:21.646Z,27.90
2018-07-09T11:42:50.558Z,28.10
2018-07-09T11:45:19.544Z,28.30
2018-07-09T11:47:49.319Z,27.80
2018-07-09T11:50:18.287Z,27.60
2018-07-09T11:52:47.154Z,27.60
2018-07-09T11:55:16.056Z,27.60
2018-07-09T11:57:45.118Z,27.60
2018-07-09T12:00:14.075Z,27.90
2018-07-09T12:02:43.010Z,28.30
2018-07-09T12:05:12.035Z,28.40
2018-07-09T12:07:40.963Z,28.60
2018-07-09T12:10:09.907Z,28.60
2018-07-09T12:12:38.880Z,28.90
2018-07-09T12:15:07.816Z,29.20
2018-07-09T12:17:36.755Z,29.40
2018-07-09T12:20:05.689Z,29.70
2018-07-09T12:22:34.610Z,30.00
2018-07-09T12:25:03.582Z,29.90
2018-07-09T12:27:32.479Z,30.20
2018-07-09T12:30:01.365Z,30.20
2018-07-09T12:32:30.243Z,29.90
2018-07-09T12:34:59.174Z,29.50
2018-07-09T12:37:28.059Z,29.30
2018-07-09T12:39:57.030Z,29.20
2018-07-09T12:42:25.947Z,29.00
2018-07-09T12:44:54.832Z,28.60
2018-07-09T12:47:23.726Z,28.40
2018-07-09T12:49:52.612Z,28.40
2018-07-09T12:52:21.515Z,28.30
2018-07-09T12:54:50.415Z,28.80
2018-07-09T12:57:19.319Z,29.00
2018-07-09T12:59:48.290Z,29.40
2018-07-09T13:02:17.178Z,30.10
2018-07-09T13:04:46.058Z,30.20
2018-07-09T13:07:14.980Z,30.20
2018-07-09T13:09:43.891Z,30.40
2018-07-09T13:12:16.448Z,30.50
2018-07-09T13:14:45.359Z,29.80
2018-07-09T13:17:14.278Z,30.20
2018-07-09T13:19:43.169Z,30.60
2018-07-09T13:22:12.074Z,30.70
2018-07-09T13:24:41.105Z,30.80
2018-07-09T13:27:10.019Z,30.90
2018-07-09T13:29:38.925Z,31.60
2018-07-09T13:32:07.862Z,31.90
2018-07-09T13:34:36.966Z,32.20
2018-07-09T13:37:06.266Z,31.60
2018-07-09T13:39:35.558Z,30.80
2018-07-09T13:42:04.522Z,30.40
2018-07-09T13:44:33.510Z,30.70
2018-07-09T13:47:02.472Z,31.40
2018-07-09T13:49:31.498Z,31.40
2018-07-09T13:52:00.478Z,31.70
2018-07-09T13:54:29.377Z,31.20
2018-07-09T13:56:58.298Z,30.70
2018-07-09T13:59:27.210Z,30.50
2018-07-09T14:01:56.159Z,30.50
2018-07-09T14:04:25.057Z,31.00
2018-07-09T14:06:54.274Z,31.80
2018-07-09T14:09:23.183Z,32.10
2018-07-09T14:11:52.070Z,31.30
2018-07-09T14:14:20.951Z,30.80
2018-07-09T14:16:49.862Z,31.40
2018-07-09T14:19:30.551Z,31.30
2018-07-09T14:21:59.422Z,30.60
2018-07-09T14:24:28.290Z,29.90
2018-07-09T14:26:57.154Z,30.50
2018-07-09T14:29:26.026Z,31.40
2018-07-09T14:31:55.035Z,32.00
2018-07-09T14:34:23.902Z,31.80
2018-07-09T14:36:52.844Z,31.90
2018-07-09T14:39:21.662Z,32.00
2018-07-09T14:41:50.551Z,32.50
2018-07-09T14:44:19.435Z,33.20
2018-07-09T14:46:48.338Z,33.00
2018-07-09T14:49:17.206Z,32.80
2018-07-09T14:51:46.196Z,32.80
2018-07-09T14:54:15.002Z,32.50
2018-07-09T14:59:12.423Z,31.70
2018-07-09T15:01:41.442Z,32.00
2018-07-09T15:04:10.369Z,32.50
2018-07-09T15:06:39.334Z,32.90
2018-07-09T15:09:08.235Z,33.10
2018-07-09T15:11:37.330Z,33.10
2018-07-09T15:14:06.387Z,33.20
2018-07-09T15:16:35.299Z,33.00
2018-07-09T15:19:04.258Z,33.20
2018-07-09T15:21:33.182Z,33.00
2018-07-09T15:24:02.050Z,32.90
2018-07-09T15:26:30.947Z,33.20
2018-07-09T15:28:59.818Z,33.20
2018-07-09T15:31:28.750Z,33.10
2018-07-09T15:33:57.716Z,32.70
2018-07-09T15:36:27.257Z,32.40
2018-07-09T15:38:56.310Z,31.90
2018-07-09T15:41:25.445Z,31.90
2018-07-09T15:44:01.095Z,31.80
2018-07-09T15:48:59.030Z,32.40
2018-07-09T15:51:27.917Z,32.60
2018-07-09T15:53:57.066Z,32.20
2018-07-09T15:56:26.874Z,31.90
2018-07-09T15:58:56.098Z,32.50
2018-07-09T16:01:25.072Z,33.10
2018-07-09T16:03:53.949Z,33.30
2018-07-09T16:06:23.310Z,33.50
2018-07-09T16:08:52.643Z,33.80
2018-07-09T16:11:21.535Z,33.70
2018-07-09T16:13:50.958Z,33.50
2018-07-09T16:16:20.614Z,33.00
2018-07-09T16:18:49.515Z,32.10
2018-07-09T16:21:18.444Z,31.50
2018-07-09T16:23:47.326Z,31.50
2018-07-09T16:26:16.222Z,32.20
2018-07-09T16:28:45.227Z,32.40
2018-07-09T16:31:17.091Z,31.50
2018-07-09T16:33:46.001Z,31.40
2018-07-09T16:36:14.957Z,32.50
2018-07-09T16:38:43.854Z,32.80
2018-07-09T16:41:12.749Z,32.70
2018-07-09T16:43:41.738Z,33.00
2018-07-09T16:46:10.599Z,33.40
2018-07-09T16:48:39.574Z,33.50
2018-07-09T16:51:08.474Z,33.60
2018-07-09T16:53:37.548Z,33.30
2018-07-09T16:56:06.722Z,32.80
2018-07-09T16:58:35.648Z,32.50
2018-07-09T17:01:04.566Z,32.30
2018-07-09T17:03:33.462Z,32.40
2018-07-09T17:06:02.563Z,32.80
2018-07-09T17:08:31.657Z,33.10
2018-07-09T17:11:00.539Z,33.00
2018-07-09T17:13:29.540Z,32.80
2018-07-09T17:15:58.502Z,33.20
2018-07-09T17:18:27.501Z,32.80
2018-07-09T17:20:56.391Z,31.80
2018-07-09T17:23:25.337Z,30.40
2018-07-09T17:25:54.223Z,29.30
2018-07-09T17:28:23.154Z,28.60
2018-07-09T17:30:52.491Z,27.90
2018-07-09T17:33:21.391Z,27.20
2018-07-09T17:35:50.310Z,27.00
2018-07-09T17:38:19.240Z,27.30
2018-07-09T17:40:48.127Z,27.50
2018-07-09T17:43:17.080Z,27.50
2018-07-09T17:45:45.998Z,27.00
2018-07-09T17:48:15.058Z,26.70
2018-07-09T17:50:43.934Z,26.40
2018-07-09T17:53:12.810Z,26.10
2018-07-09T17:55:41.718Z,25.80
2018-07-09T17:58:10.746Z,25.70
2018-07-09T18:00:39.729Z,25.70
2018-07-09T18:03:08.744Z,25.50
2018-07-09T18:05:37.634Z,25.50
2018-07-09T18:08:06.647Z,25.70
2018-07-09T18:10:35.541Z,25.70
2018-07-09T18:13:04.461Z,25.50
2018-07-09T18:15:33.751Z,25.50
2018-07-09T18:18:02.750Z,25.50
2018-07-09T18:23:00.159Z,25.40
2018-07-09T18:27:57.714Z,25.20
2018-07-09T18:30:26.613Z,25.00
2018-07-09T18:32:55.530Z,24.80
2018-07-09T18:35:24.837Z,24.70
2018-07-09T18:37:53.713Z,24.60
2018-07-09T18:40:22.607Z,24.60
2018-07-09T18:42:51.602Z,24.50
2018-07-09T18:45:20.538Z,24.30
2018-07-09T18:47:49.471Z,24.20
2018-07-09T18:50:18.551Z,24.20
2018-07-09T18:52:47.469Z,24.20
2018-07-09T18:55:17.264Z,24.10
2018-07-09T18:57:46.203Z,24.00
2018-07-09T19:00:15.142Z,23.90
2018-07-09T19:02:44.054Z,23.70
2018-07-09T19:05:13.087Z,23.70
2018-07-09T19:07:41.995Z,23.60
2018-07-09T19:10:11.109Z,23.50
2018-07-09T19:12:40.098Z,23.40
2018-07-09T19:15:09.374Z,23.30
2018-07-09T19:18:03.023Z,23.40
2018-07-09T19:20:43.110Z,23.20
2018-07-09T19:23:11.382Z,23.20
2018-07-09T19:25:39.549Z,23.10
2018-07-09T19:28:07.975Z,23.00
2018-07-09T19:30:35.750Z,22.80
2018-07-09T19:33:03.540Z,22.70
2018-07-09T19:35:31.392Z,22.70
2018-07-09T19:37:59.512Z,22.50
2018-07-09T19:40:27.073Z,22.70
2018-07-09T19:42:54.870Z,22.70
2018-07-09T19:45:23.238Z,22.60
2018-07-09T19:47:51.105Z,22.60
2018-07-09T19:50:18.906Z,22.30
2018-07-09T19:52:46.839Z,22.30
2018-07-09T19:55:14.621Z,22.30
2018-07-09T19:57:42.481Z,22.30
2018-07-09T20:00:10.316Z,22.20
2018-07-09T20:07:34.171Z,22.20
2018-07-09T20:12:42.787Z,22.20
2018-07-09T20:15:15.960Z,22.00
2018-07-09T20:17:43.731Z,21.90
2018-07-09T20:20:11.549Z,21.90
2018-07-09T20:22:39.541Z,21.90
2018-07-09T20:25:07.434Z,21.90
2018-07-09T20:27:35.460Z,22.00
2018-07-09T20:30:03.491Z,22.00
2018-07-09T20:32:31.328Z,22.00
2018-07-09T20:35:01.331Z,21.90
2018-07-09T20:37:30.051Z,21.70
2018-07-09T20:39:58.321Z,21.60
2018-07-09T20:42:26.350Z,21.70
2018-07-09T20:44:55.543Z,21.70
2018-07-09T20:47:24.438Z,21.70
2018-07-09T20:49:52.287Z,21.50
2018-07-09T20:52:20.455Z,21.50
2018-07-09T20:54:48.692Z,21.40
2018-07-09T20:57:16.529Z,21.40
2018-07-09T20:59:45.390Z,21.30
2018-07-09T21:02:13.254Z,21.20
2018-07-09T21:04:41.123Z,21.30
2018-07-09T21:07:17.178Z,21.20
2018-07-09T21:09:44.977Z,21.20
2018-07-09T21:12:13.126Z,21.10
2018-07-09T21:14:40.907Z,21.10
2018-07-09T21:17:08.787Z,21.00
2018-07-09T21:19:40.121Z,21.00
2018-07-09T21:22:09.056Z,20.80
2018-07-09T21:24:37.717Z,20.90
2018-07-09T21:29:33.563Z,20.90
2018-07-09T21:32:01.360Z,20.90
2018-07-09T21:34:29.303Z,20.80
2018-07-09T21:36:57.903Z,20.50
2018-07-09T21:39:25.912Z,20.50
2018-07-09T21:44:21.887Z,20.50
2018-07-09T21:46:49.732Z,20.60
2018-07-09T21:49:17.611Z,20.50
2018-07-09T21:51:45.410Z,20.50
2018-07-09T21:54:13.239Z,20.40
2018-07-09T21:56:41.087Z,20.40
2018-07-09T21:59:08.914Z,20.20
2018-07-09T22:01:36.749Z,20.30
2018-07-09T22:04:04.695Z,20.20
2018-07-09T22:06:32.953Z,20.10
2018-07-09T22:09:00.744Z,20.10
2018-07-09T22:11:28.698Z,20.20
2018-07-09T22:13:56.506Z,20.10
2018-07-09T22:16:25.847Z,20.20
2018-07-09T22:18:53.690Z,20.20
2018-07-09T22:21:21.494Z,20.10
2018-07-09T22:23:49.310Z,20.10
2018-07-09T22:26:17.129Z,20.10
2018-07-09T22:28:45.174Z,20.00
2018-07-09T22:31:14.251Z,19.90
2018-07-09T22:33:43.419Z,19.90
2018-07-09T22:36:12.638Z,19.80
2018-07-09T22:38:41.578Z,19.80
2018-07-09T22:41:10.459Z,19.90
2018-07-09T22:43:50.698Z,19.90
2018-07-09T22:46:19.591Z,19.80
2018-07-09T22:48:48.510Z,19.80
2018-07-09T22:51:17.476Z,19.80
2018-07-09T22:53:46.364Z,19.80
2018-07-09T22:56:15.271Z,19.90
2018-07-09T22:58:44.276Z,19.80
2018-07-09T23:01:13.214Z,19.60
2018-07-09T23:03:42.170Z,19.60
2018-07-09T23:06:11.078Z,19.70
2018-07-09T23:08:40.043Z,19.70
2018-07-09T23:11:20.546Z,19.70
2018-07-09T23:17:11.416Z,19.60
2018-07-09T23:21:58.476Z,19.50
2018-07-09T23:24:26.765Z,19.50
2018-07-09T23:26:55.158Z,19.30
2018-07-09T23:29:22.953Z,19.30
2018-07-09T23:31:50.909Z,19.30
2018-07-09T23:34:19.187Z,19.30
2018-07-09T23:36:47.038Z,19.40
2018-07-09T23:39:14.846Z,19.30
2018-07-09T23:41:42.656Z,19.20
2018-07-09T23:44:10.474Z,19.30
2018-07-09T23:46:38.312Z,19.30
2018-07-09T23:49:06.142Z,19.40
2018-07-09T23:51:33.955Z,19.40
2018-07-09T23:54:01.746Z,19.40
2018-07-09T23:59:43.581Z,19.40
